sensor_id;sensor_type;location;lat;lon;timestamp;pressure;altitude;pressure_sealevel;temperature;humidity
77855;BME280;67046;50.088;14.336;2023-01-29T00:00:09;98653.20;;;-2.39;68.73
77855;BME280;67046;50.088;14.336;2023-01-29T00:01:03;98653.96;;;-2.40;68.62
77855;BME280;67046;50.088;14.336;2023-01-29T00:01:40;98657.61;;;-2.40;68.77
77855;BME280;67046;50.088;14.336;2023-01-29T00:02:12;98654.97;;;-2.39;68.79
77855;BME280;67046;50.088;14.336;2023-01-29T00:02:44;98654.23;;;-2.39;68.68
77855;BME280;67046;50.088;14.336;2023-01-29T00:03:17;98655.17;;;-2.38;68.63
77855;BME280;67046;50.088;14.336;2023-01-29T00:03:52;98655.49;;;-2.38;68.61
77855;BME280;67046;50.088;14.336;2023-01-29T00:04:24;98652.89;;;-2.37;68.40
77855;BME280;67046;50.088;14.336;2023-01-29T00:04:56;98655.42;;;-2.37;68.39
77855;BME280;67046;50.088;14.336;2023-01-29T00:05:28;98654.25;;;-2.37;68.57
77855;BME280;67046;50.088;14.336;2023-01-29T00:06:05;98651.30;;;-2.37;68.67
77855;BME280;67046;50.088;14.336;2023-01-29T00:06:37;98653.05;;;-2.37;68.50
77855;BME280;67046;50.088;14.336;2023-01-29T00:07:10;98651.34;;;-2.37;68.49
77855;BME280;67046;50.088;14.336;2023-01-29T00:07:42;98651.52;;;-2.37;68.54
77855;BME280;67046;50.088;14.336;2023-01-29T00:08:14;98650.84;;;-2.38;68.43
77855;BME280;67046;50.088;14.336;2023-01-29T00:08:46;98648.95;;;-2.38;68.47
77855;BME280;67046;50.088;14.336;2023-01-29T00:09:18;98646.32;;;-2.37;68.58
77855;BME280;67046;50.088;14.336;2023-01-29T00:09:50;98648.85;;;-2.37;68.34
77855;BME280;67046;50.088;14.336;2023-01-29T00:10:24;98646.81;;;-2.37;68.32
77855;BME280;67046;50.088;14.336;2023-01-29T00:11:00;98651.64;;;-2.37;68.63
77855;BME280;67046;50.088;14.336;2023-01-29T00:11:33;98646.11;;;-2.37;68.43
77855;BME280;67046;50.088;14.336;2023-01-29T00:12:05;98650.93;;;-2.36;68.37
77855;BME280;67046;50.088;14.336;2023-01-29T00:12:39;98650.42;;;-2.39;68.35
77855;BME280;67046;50.088;14.336;2023-01-29T00:13:12;98649.92;;;-2.39;68.68
77855;BME280;67046;50.088;14.336;2023-01-29T00:13:44;98651.28;;;-2.39;68.46
77855;BME280;67046;50.088;14.336;2023-01-29T00:14:16;98649.02;;;-2.38;68.62
77855;BME280;67046;50.088;14.336;2023-01-29T00:14:48;98648.17;;;-2.39;68.37
77855;BME280;67046;50.088;14.336;2023-01-29T00:15:20;98647.77;;;-2.38;68.43
77855;BME280;67046;50.088;14.336;2023-01-29T00:15:54;98646.92;;;-2.38;68.48
77855;BME280;67046;50.088;14.336;2023-01-29T00:16:27;98646.25;;;-2.38;68.28
77855;BME280;67046;50.088;14.336;2023-01-29T00:16:59;98645.02;;;-2.38;67.69
77855;BME280;67046;50.088;14.336;2023-01-29T00:17:32;98646.98;;;-2.39;67.77
77855;BME280;67046;50.088;14.336;2023-01-29T00:18:04;98646.44;;;-2.39;67.82
77855;BME280;67046;50.088;14.336;2023-01-29T00:18:40;98644.91;;;-2.39;68.08
77855;BME280;67046;50.088;14.336;2023-01-29T00:19:12;98647.09;;;-2.38;68.06
77855;BME280;67046;50.088;14.336;2023-01-29T00:19:44;98648.41;;;-2.37;67.95
77855;BME280;67046;50.088;14.336;2023-01-29T00:20:16;98645.59;;;-2.37;68.06
77855;BME280;67046;50.088;14.336;2023-01-29T00:20:48;98649.71;;;-2.34;68.09
77855;BME280;67046;50.088;14.336;2023-01-29T00:21:21;98647.61;;;-2.31;68.12
77855;BME280;67046;50.088;14.336;2023-01-29T00:21:53;98647.67;;;-2.30;68.04
77855;BME280;67046;50.088;14.336;2023-01-29T00:22:25;98647.08;;;-2.29;67.93
77855;BME280;67046;50.088;14.336;2023-01-29T00:22:58;98642.48;;;-2.28;68.04
77855;BME280;67046;50.088;14.336;2023-01-29T00:23:30;98637.27;;;-2.27;67.90
77855;BME280;67046;50.088;14.336;2023-01-29T00:24:02;98636.20;;;-2.27;68.04
77855;BME280;67046;50.088;14.336;2023-01-29T00:24:34;98641.54;;;-2.27;67.80
77855;BME280;67046;50.088;14.336;2023-01-29T00:25:07;98638.02;;;-2.26;67.77
77855;BME280;67046;50.088;14.336;2023-01-29T00:25:39;98640.61;;;-2.26;67.60
77855;BME280;67046;50.088;14.336;2023-01-29T00:26:11;98636.61;;;-2.26;67.71
77855;BME280;67046;50.088;14.336;2023-01-29T00:26:44;98641.27;;;-2.26;67.75
77855;BME280;67046;50.088;14.336;2023-01-29T00:27:16;98642.08;;;-2.25;67.66
77855;BME280;67046;50.088;14.336;2023-01-29T00:27:48;98641.00;;;-2.25;67.89
77855;BME280;67046;50.088;14.336;2023-01-29T00:28:19;98641.05;;;-2.23;67.61
77855;BME280;67046;50.088;14.336;2023-01-29T00:28:52;98639.73;;;-2.22;67.76
77855;BME280;67046;50.088;14.336;2023-01-29T00:29:24;98634.52;;;-2.22;67.80
77855;BME280;67046;50.088;14.336;2023-01-29T00:29:56;98640.48;;;-2.21;67.70
77855;BME280;67046;50.088;14.336;2023-01-29T00:30:42;98636.15;;;-2.21;67.51
77855;BME280;67046;50.088;14.336;2023-01-29T00:31:17;98633.73;;;-2.21;67.80
77855;BME280;67046;50.088;14.336;2023-01-29T00:31:49;98634.73;;;-2.20;67.78
77855;BME280;67046;50.088;14.336;2023-01-29T00:32:21;98635.06;;;-2.20;67.70
77855;BME280;67046;50.088;14.336;2023-01-29T00:32:53;98633.80;;;-2.19;67.63
77855;BME280;67046;50.088;14.336;2023-01-29T00:33:25;98635.13;;;-2.19;67.59
77855;BME280;67046;50.088;14.336;2023-01-29T00:33:59;98636.63;;;-2.18;67.47
77855;BME280;67046;50.088;14.336;2023-01-29T00:34:31;98636.34;;;-2.19;67.47
77855;BME280;67046;50.088;14.336;2023-01-29T00:35:04;98641.67;;;-2.19;67.68
77855;BME280;67046;50.088;14.336;2023-01-29T00:35:38;98639.47;;;-2.19;67.49
77855;BME280;67046;50.088;14.336;2023-01-29T00:36:12;98641.35;;;-2.19;67.34
77855;BME280;67046;50.088;14.336;2023-01-29T00:36:44;98642.80;;;-2.20;67.34
77855;BME280;67046;50.088;14.336;2023-01-29T00:37:16;98643.70;;;-2.20;67.68
77855;BME280;67046;50.088;14.336;2023-01-29T00:37:49;98643.17;;;-2.20;67.43
77855;BME280;67046;50.088;14.336;2023-01-29T00:38:21;98644.26;;;-2.21;67.51
77855;BME280;67046;50.088;14.336;2023-01-29T00:38:57;98646.48;;;-2.20;67.29
77855;BME280;67046;50.088;14.336;2023-01-29T00:39:30;98646.70;;;-2.21;67.41
77855;BME280;67046;50.088;14.336;2023-01-29T00:40:09;98641.13;;;-2.22;67.32
77855;BME280;67046;50.088;14.336;2023-01-29T00:40:42;98646.07;;;-2.22;67.31
77855;BME280;67046;50.088;14.336;2023-01-29T00:41:32;98646.92;;;-2.21;67.33
77855;BME280;67046;50.088;14.336;2023-01-29T00:42:23;98649.80;;;-2.21;67.49
77855;BME280;67046;50.088;14.336;2023-01-29T00:43:14;98649.92;;;-2.20;67.60
77855;BME280;67046;50.088;14.336;2023-01-29T00:44:05;98649.79;;;-2.19;67.63
77855;BME280;67046;50.088;14.336;2023-01-29T00:44:57;98646.09;;;-2.18;67.61
77855;BME280;67046;50.088;14.336;2023-01-29T00:45:29;98642.67;;;-2.16;67.65
77855;BME280;67046;50.088;14.336;2023-01-29T00:46:01;98643.08;;;-2.15;67.73
77855;BME280;67046;50.088;14.336;2023-01-29T00:46:33;98640.72;;;-2.14;67.54
77855;BME280;67046;50.088;14.336;2023-01-29T00:47:05;98640.27;;;-2.12;67.43
77855;BME280;67046;50.088;14.336;2023-01-29T00:47:56;98641.15;;;-2.13;67.46
77855;BME280;67046;50.088;14.336;2023-01-29T00:48:28;98638.91;;;-2.13;67.51
77855;BME280;67046;50.088;14.336;2023-01-29T00:49:00;98637.45;;;-2.12;67.69
77855;BME280;67046;50.088;14.336;2023-01-29T00:49:32;98643.23;;;-2.11;67.47
77855;BME280;67046;50.088;14.336;2023-01-29T00:50:08;98643.31;;;-2.12;67.44
77855;BME280;67046;50.088;14.336;2023-01-29T00:50:41;98643.61;;;-2.11;67.40
77855;BME280;67046;50.088;14.336;2023-01-29T00:51:13;98640.45;;;-2.11;67.20
77855;BME280;67046;50.088;14.336;2023-01-29T00:51:45;98644.16;;;-2.10;67.01
77855;BME280;67046;50.088;14.336;2023-01-29T00:52:37;98645.14;;;-2.09;67.22
77855;BME280;67046;50.088;14.336;2023-01-29T00:53:11;98640.99;;;-2.09;67.06
77855;BME280;67046;50.088;14.336;2023-01-29T00:53:43;98640.23;;;-2.08;67.29
77855;BME280;67046;50.088;14.336;2023-01-29T00:54:15;98642.36;;;-2.07;66.84
77855;BME280;67046;50.088;14.336;2023-01-29T00:54:47;98641.63;;;-2.06;67.25
77855;BME280;67046;50.088;14.336;2023-01-29T00:55:19;98638.27;;;-2.05;67.38
77855;BME280;67046;50.088;14.336;2023-01-29T00:55:51;98640.98;;;-2.05;67.19
77855;BME280;67046;50.088;14.336;2023-01-29T00:56:24;98644.51;;;-2.04;67.26
77855;BME280;67046;50.088;14.336;2023-01-29T00:56:57;98648.11;;;-2.03;67.04
77855;BME280;67046;50.088;14.336;2023-01-29T00:57:30;98643.16;;;-2.04;67.05
77855;BME280;67046;50.088;14.336;2023-01-29T00:58:02;98647.09;;;-2.04;67.03
77855;BME280;67046;50.088;14.336;2023-01-29T00:58:34;98645.80;;;-2.02;67.07
77855;BME280;67046;50.088;14.336;2023-01-29T00:59:06;98643.38;;;-2.02;67.16
77855;BME280;67046;50.088;14.336;2023-01-29T00:59:38;98643.54;;;-2.03;67.06
77855;BME280;67046;50.088;14.336;2023-01-29T01:00:13;98641.60;;;-2.02;67.14
77855;BME280;67046;50.088;14.336;2023-01-29T01:00:45;98636.16;;;-2.01;67.23
77855;BME280;67046;50.088;14.336;2023-01-29T01:01:18;98637.45;;;-2.00;67.23
77855;BME280;67046;50.088;14.336;2023-01-29T01:02:10;98631.62;;;-2.01;67.34
77855;BME280;67046;50.088;14.336;2023-01-29T01:03:01;98627.48;;;-2.02;67.31
77855;BME280;67046;50.088;14.336;2023-01-29T01:03:40;98626.61;;;-2.07;67.01
77855;BME280;67046;50.088;14.336;2023-01-29T01:04:13;98624.48;;;-2.08;67.14
77855;BME280;67046;50.088;14.336;2023-01-29T01:04:45;98620.21;;;-2.08;66.81
77855;BME280;67046;50.088;14.336;2023-01-29T01:05:17;98617.73;;;-2.10;66.87
77855;BME280;67046;50.088;14.336;2023-01-29T01:05:50;98614.67;;;-2.10;67.01
77855;BME280;67046;50.088;14.336;2023-01-29T01:06:22;98611.64;;;-2.11;66.89
77855;BME280;67046;50.088;14.336;2023-01-29T01:06:54;98615.83;;;-2.12;66.99
77855;BME280;67046;50.088;14.336;2023-01-29T01:07:26;98613.86;;;-2.13;66.80
77855;BME280;67046;50.088;14.336;2023-01-29T01:07:58;98614.19;;;-2.14;66.78
77855;BME280;67046;50.088;14.336;2023-01-29T01:08:30;98612.84;;;-2.15;66.70
77855;BME280;67046;50.088;14.336;2023-01-29T01:09:21;98615.66;;;-2.15;66.74
77855;BME280;67046;50.088;14.336;2023-01-29T01:10:14;98619.06;;;-2.17;66.68
77855;BME280;67046;50.088;14.336;2023-01-29T01:10:58;98615.73;;;-2.18;66.60
77855;BME280;67046;50.088;14.336;2023-01-29T01:11:30;98617.10;;;-2.18;66.47
77855;BME280;67046;50.088;14.336;2023-01-29T01:12:04;98620.35;;;-2.20;66.75
77855;BME280;67046;50.088;14.336;2023-01-29T01:12:36;98617.75;;;-2.22;66.60
77855;BME280;67046;50.088;14.336;2023-01-29T01:13:08;98615.83;;;-2.21;66.60
77855;BME280;67046;50.088;14.336;2023-01-29T01:13:40;98617.13;;;-2.22;66.57
77855;BME280;67046;50.088;14.336;2023-01-29T01:14:12;98616.96;;;-2.22;66.88
77855;BME280;67046;50.088;14.336;2023-01-29T01:14:44;98619.48;;;-2.24;66.65
77855;BME280;67046;50.088;14.336;2023-01-29T01:15:17;98615.70;;;-2.26;66.88
77855;BME280;67046;50.088;14.336;2023-01-29T01:15:49;98615.67;;;-2.25;66.77
77855;BME280;67046;50.088;14.336;2023-01-29T01:16:21;98617.37;;;-2.25;66.92
77855;BME280;67046;50.088;14.336;2023-01-29T01:16:54;98613.80;;;-2.26;66.94
77855;BME280;67046;50.088;14.336;2023-01-29T01:17:26;98614.52;;;-2.26;67.02
77855;BME280;67046;50.088;14.336;2023-01-29T01:18:00;98615.52;;;-2.27;66.93
77855;BME280;67046;50.088;14.336;2023-01-29T01:18:32;98616.78;;;-2.28;67.00
77855;BME280;67046;50.088;14.336;2023-01-29T01:19:04;98614.48;;;-2.30;66.91
77855;BME280;67046;50.088;14.336;2023-01-29T01:19:36;98615.34;;;-2.31;66.85
77855;BME280;67046;50.088;14.336;2023-01-29T01:20:08;98615.80;;;-2.33;66.94
77855;BME280;67046;50.088;14.336;2023-01-29T01:20:41;98615.42;;;-2.35;66.97
77855;BME280;67046;50.088;14.336;2023-01-29T01:21:13;98617.27;;;-2.37;66.93
77855;BME280;67046;50.088;14.336;2023-01-29T01:21:45;98617.70;;;-2.38;67.31
77855;BME280;67046;50.088;14.336;2023-01-29T01:22:18;98618.40;;;-2.38;67.28
77855;BME280;67046;50.088;14.336;2023-01-29T01:22:52;98615.98;;;-2.37;67.35
77855;BME280;67046;50.088;14.336;2023-01-29T01:23:25;98615.45;;;-2.37;67.42
77855;BME280;67046;50.088;14.336;2023-01-29T01:23:58;98613.77;;;-2.36;67.41
77855;BME280;67046;50.088;14.336;2023-01-29T01:24:31;98609.37;;;-2.35;67.42
77855;BME280;67046;50.088;14.336;2023-01-29T01:25:03;98609.86;;;-2.35;67.39
77855;BME280;67046;50.088;14.336;2023-01-29T01:25:35;98609.07;;;-2.35;67.40
77855;BME280;67046;50.088;14.336;2023-01-29T01:26:08;98607.42;;;-2.37;67.26
77855;BME280;67046;50.088;14.336;2023-01-29T01:26:41;98608.19;;;-2.37;67.34
77855;BME280;67046;50.088;14.336;2023-01-29T01:27:13;98607.96;;;-2.39;67.35
77855;BME280;67046;50.088;14.336;2023-01-29T01:27:45;98606.08;;;-2.41;67.41
77855;BME280;67046;50.088;14.336;2023-01-29T01:28:17;98613.54;;;-2.41;67.59
77855;BME280;67046;50.088;14.336;2023-01-29T01:28:49;98613.91;;;-2.43;67.66
77855;BME280;67046;50.088;14.336;2023-01-29T01:29:21;98612.00;;;-2.45;67.58
77855;BME280;67046;50.088;14.336;2023-01-29T01:29:53;98612.91;;;-2.48;67.44
77855;BME280;67046;50.088;14.336;2023-01-29T01:30:26;98615.60;;;-2.49;67.71
77855;BME280;67046;50.088;14.336;2023-01-29T01:31:07;98614.89;;;-2.49;67.61
77855;BME280;67046;50.088;14.336;2023-01-29T01:31:39;98616.95;;;-2.51;67.61
77855;BME280;67046;50.088;14.336;2023-01-29T01:32:12;98616.00;;;-2.52;67.78
77855;BME280;67046;50.088;14.336;2023-01-29T01:32:44;98609.85;;;-2.52;67.67
77855;BME280;67046;50.088;14.336;2023-01-29T01:33:16;98613.95;;;-2.52;67.64
77855;BME280;67046;50.088;14.336;2023-01-29T01:33:48;98613.08;;;-2.52;67.72
77855;BME280;67046;50.088;14.336;2023-01-29T01:34:22;98611.84;;;-2.52;67.74
77855;BME280;67046;50.088;14.336;2023-01-29T01:34:54;98609.55;;;-2.51;67.82
77855;BME280;67046;50.088;14.336;2023-01-29T01:35:26;98611.24;;;-2.51;67.94
77855;BME280;67046;50.088;14.336;2023-01-29T01:36:00;98612.67;;;-2.49;67.85
77855;BME280;67046;50.088;14.336;2023-01-29T01:36:32;98611.74;;;-2.48;67.88
77855;BME280;67046;50.088;14.336;2023-01-29T01:37:04;98613.98;;;-2.46;68.04
77855;BME280;67046;50.088;14.336;2023-01-29T01:37:36;98611.48;;;-2.45;67.97
77855;BME280;67046;50.088;14.336;2023-01-29T01:38:10;98614.56;;;-2.43;68.11
77855;BME280;67046;50.088;14.336;2023-01-29T01:38:42;98615.77;;;-2.41;68.05
77855;BME280;67046;50.088;14.336;2023-01-29T01:39:16;98619.65;;;-2.40;67.93
77855;BME280;67046;50.088;14.336;2023-01-29T01:39:48;98618.54;;;-2.39;67.85
77855;BME280;67046;50.088;14.336;2023-01-29T01:40:21;98621.17;;;-2.38;67.78
77855;BME280;67046;50.088;14.336;2023-01-29T01:40:54;98617.91;;;-2.40;68.14
77855;BME280;67046;50.088;14.336;2023-01-29T01:41:26;98616.21;;;-2.40;67.90
77855;BME280;67046;50.088;14.336;2023-01-29T01:41:58;98619.43;;;-2.40;68.01
77855;BME280;67046;50.088;14.336;2023-01-29T01:42:30;98620.27;;;-2.39;67.95
77855;BME280;67046;50.088;14.336;2023-01-29T01:43:04;98617.64;;;-2.39;67.89
77855;BME280;67046;50.088;14.336;2023-01-29T01:43:53;98618.63;;;-2.38;67.75
77855;BME280;67046;50.088;14.336;2023-01-29T01:45:21;98619.30;;;-2.38;68.03
77855;BME280;67046;50.088;14.336;2023-01-29T01:45:43;98619.65;;;-2.40;68.07
77855;BME280;67046;50.088;14.336;2023-01-29T01:46:18;98616.40;;;-2.40;68.03
77855;BME280;67046;50.088;14.336;2023-01-29T01:46:50;98617.75;;;-2.40;68.07
77855;BME280;67046;50.088;14.336;2023-01-29T01:48:09;98612.77;;;-2.39;68.00
77855;BME280;67046;50.088;14.336;2023-01-29T01:48:45;98614.48;;;-2.40;68.04
77855;BME280;67046;50.088;14.336;2023-01-29T01:49:20;98612.83;;;-2.41;68.09
77855;BME280;67046;50.088;14.336;2023-01-29T01:49:53;98616.27;;;-2.41;68.10
77855;BME280;67046;50.088;14.336;2023-01-29T01:50:34;98611.08;;;-2.41;68.09
77855;BME280;67046;50.088;14.336;2023-01-29T01:51:08;98612.27;;;-2.41;68.12
77855;BME280;67046;50.088;14.336;2023-01-29T01:51:44;98613.95;;;-2.40;68.18
77855;BME280;67046;50.088;14.336;2023-01-29T01:52:18;98615.18;;;-2.40;68.19
77855;BME280;67046;50.088;14.336;2023-01-29T01:52:53;98610.73;;;-2.41;68.25
77855;BME280;67046;50.088;14.336;2023-01-29T01:53:38;98610.52;;;-2.40;68.31
77855;BME280;67046;50.088;14.336;2023-01-29T01:54:18;98609.37;;;-2.41;68.38
77855;BME280;67046;50.088;14.336;2023-01-29T01:54:53;98608.08;;;-2.40;68.47
77855;BME280;67046;50.088;14.336;2023-01-29T01:55:27;98612.75;;;-2.40;68.35
77855;BME280;67046;50.088;14.336;2023-01-29T01:56:04;98614.09;;;-2.39;68.46
77855;BME280;67046;50.088;14.336;2023-01-29T01:56:41;98612.18;;;-2.40;68.49
77855;BME280;67046;50.088;14.336;2023-01-29T01:57:17;98609.69;;;-2.39;68.62
77855;BME280;67046;50.088;14.336;2023-01-29T01:58:02;98609.91;;;-2.41;68.70
77855;BME280;67046;50.088;14.336;2023-01-29T01:58:40;98610.55;;;-2.41;68.81
77855;BME280;67046;50.088;14.336;2023-01-29T01:59:16;98607.48;;;-2.41;68.88
77855;BME280;67046;50.088;14.336;2023-01-29T01:59:54;98608.55;;;-2.41;68.62
77855;BME280;67046;50.088;14.336;2023-01-29T02:00:27;98601.69;;;-2.42;68.76
77855;BME280;67046;50.088;14.336;2023-01-29T02:00:59;98598.85;;;-2.41;68.80
77855;BME280;67046;50.088;14.336;2023-01-29T02:01:32;98600.21;;;-2.41;68.73
77855;BME280;67046;50.088;14.336;2023-01-29T02:02:04;98603.73;;;-2.40;68.88
77855;BME280;67046;50.088;14.336;2023-01-29T02:02:55;98598.73;;;-2.42;68.97
77855;BME280;67046;50.088;14.336;2023-01-29T02:03:49;98605.44;;;-2.41;69.17
77855;BME280;67046;50.088;14.336;2023-01-29T02:04:45;98603.58;;;-2.42;68.88
77855;BME280;67046;50.088;14.336;2023-01-29T02:05:38;98605.67;;;-2.42;69.04
77855;BME280;67046;50.088;14.336;2023-01-29T02:06:29;98601.38;;;-2.42;69.10
77855;BME280;67046;50.088;14.336;2023-01-29T02:07:20;98598.10;;;-2.42;69.03
77855;BME280;67046;50.088;14.336;2023-01-29T02:08:11;98598.63;;;-2.43;69.24
77855;BME280;67046;50.088;14.336;2023-01-29T02:09:09;98599.46;;;-2.44;69.10
77855;BME280;67046;50.088;14.336;2023-01-29T02:10:09;98596.84;;;-2.48;69.29
77855;BME280;67046;50.088;14.336;2023-01-29T02:10:47;98601.05;;;-2.48;69.53
77855;BME280;67046;50.088;14.336;2023-01-29T02:11:20;98597.08;;;-2.48;69.48
77855;BME280;67046;50.088;14.336;2023-01-29T02:11:52;98594.11;;;-2.48;69.59
77855;BME280;67046;50.088;14.336;2023-01-29T02:12:24;98594.27;;;-2.47;69.44
77855;BME280;67046;50.088;14.336;2023-01-29T02:12:56;98589.98;;;-2.48;69.29
77855;BME280;67046;50.088;14.336;2023-01-29T02:13:28;98595.20;;;-2.49;69.39
77855;BME280;67046;50.088;14.336;2023-01-29T02:14:00;98594.05;;;-2.49;69.46
77855;BME280;67046;50.088;14.336;2023-01-29T02:14:34;98597.69;;;-2.50;69.63
77855;BME280;67046;50.088;14.336;2023-01-29T02:15:10;98596.58;;;-2.51;69.26
77855;BME280;67046;50.088;14.336;2023-01-29T02:15:43;98596.41;;;-2.51;69.44
77855;BME280;67046;50.088;14.336;2023-01-29T02:16:21;98597.09;;;-2.51;69.72
77855;BME280;67046;50.088;14.336;2023-01-29T02:16:53;98591.86;;;-2.50;69.39
77855;BME280;67046;50.088;14.336;2023-01-29T02:17:25;98589.34;;;-2.49;69.55
77855;BME280;67046;50.088;14.336;2023-01-29T02:17:57;98589.38;;;-2.47;69.56
77855;BME280;67046;50.088;14.336;2023-01-29T02:18:29;98590.56;;;-2.45;70.01
77855;BME280;67046;50.088;14.336;2023-01-29T02:19:21;98591.55;;;-2.47;69.87
77855;BME280;67046;50.088;14.336;2023-01-29T02:20:01;98594.77;;;-2.46;70.26
77855;BME280;67046;50.088;14.336;2023-01-29T02:20:36;98593.80;;;-2.46;70.25
77855;BME280;67046;50.088;14.336;2023-01-29T02:24:57;98595.15;;;-2.52;70.13
77855;BME280;67046;50.088;14.336;2023-01-29T02:25:55;98592.90;;;-2.54;69.90
77855;BME280;67046;50.088;14.336;2023-01-29T02:26:44;98587.51;;;-2.57;69.85
77855;BME280;67046;50.088;14.336;2023-01-29T02:27:34;98592.54;;;-2.60;69.83
77855;BME280;67046;50.088;14.336;2023-01-29T02:29:01;98592.42;;;-2.60;69.99
77855;BME280;67046;50.088;14.336;2023-01-29T02:30:08;98595.33;;;-2.62;70.05
77855;BME280;67046;50.088;14.336;2023-01-29T02:31:46;98598.66;;;-2.67;70.16
77855;BME280;67046;50.088;14.336;2023-01-29T02:32:32;98599.55;;;-2.67;70.14
77855;BME280;67046;50.088;14.336;2023-01-29T02:34:14;98599.88;;;-2.69;70.26
77855;BME280;67046;50.088;14.336;2023-01-29T02:36:14;98601.93;;;-2.71;70.42
77855;BME280;67046;50.088;14.336;2023-01-29T02:38:44;98602.56;;;-2.70;70.28
77855;BME280;67046;50.088;14.336;2023-01-29T02:40:45;98600.64;;;-2.68;70.43
77855;BME280;67046;50.088;14.336;2023-01-29T02:41:34;98597.79;;;-2.67;70.40
77855;BME280;67046;50.088;14.336;2023-01-29T02:43:46;98595.09;;;-2.65;70.00
77855;BME280;67046;50.088;14.336;2023-01-29T02:44:50;98597.23;;;-2.66;69.93
77855;BME280;67046;50.088;14.336;2023-01-29T02:45:49;98598.40;;;-2.68;69.84
77855;BME280;67046;50.088;14.336;2023-01-29T02:47:17;98601.48;;;-2.72;69.74
77855;BME280;67046;50.088;14.336;2023-01-29T02:47:57;98602.38;;;-2.74;69.85
77855;BME280;67046;50.088;14.336;2023-01-29T02:48:43;98602.75;;;-2.74;69.93
77855;BME280;67046;50.088;14.336;2023-01-29T02:49:24;98603.48;;;-2.75;70.01
77855;BME280;67046;50.088;14.336;2023-01-29T02:51:14;98608.89;;;-2.73;70.11
77855;BME280;67046;50.088;14.336;2023-01-29T02:52:24;98608.61;;;-2.76;70.11
77855;BME280;67046;50.088;14.336;2023-01-29T02:53:19;98608.36;;;-2.77;70.12
77855;BME280;67046;50.088;14.336;2023-01-29T02:54:05;98612.95;;;-2.79;69.90
77855;BME280;67046;50.088;14.336;2023-01-29T02:55:35;98610.73;;;-2.83;69.85
77855;BME280;67046;50.088;14.336;2023-01-29T02:56:13;98615.83;;;-2.84;69.75
77855;BME280;67046;50.088;14.336;2023-01-29T02:56:53;98612.43;;;-2.87;69.90
77855;BME280;67046;50.088;14.336;2023-01-29T02:57:28;98618.52;;;-2.87;69.79
77855;BME280;67046;50.088;14.336;2023-01-29T02:58:32;98617.99;;;-2.87;69.96
77855;BME280;67046;50.088;14.336;2023-01-29T03:00:19;98620.91;;;-2.89;70.06
77855;BME280;67046;50.088;14.336;2023-01-29T03:00:29;98618.63;;;-2.91;69.95
77855;BME280;67046;50.088;14.336;2023-01-29T03:01:22;98620.77;;;-2.92;70.23
77855;BME280;67046;50.088;14.336;2023-01-29T03:02:10;98623.77;;;-2.92;70.12
77855;BME280;67046;50.088;14.336;2023-01-29T03:02:53;98626.54;;;-2.92;70.19
77855;BME280;67046;50.088;14.336;2023-01-29T03:03:35;98629.34;;;-2.93;70.25
77855;BME280;67046;50.088;14.336;2023-01-29T03:04:13;98629.38;;;-2.94;70.03
77855;BME280;67046;50.088;14.336;2023-01-29T03:04:52;98628.66;;;-2.93;70.30
77855;BME280;67046;50.088;14.336;2023-01-29T03:06:44;98626.88;;;-2.95;69.95
77855;BME280;67046;50.088;14.336;2023-01-29T03:07:27;98624.95;;;-2.96;69.92
77855;BME280;67046;50.088;14.336;2023-01-29T03:08:19;98631.21;;;-2.97;70.13
77855;BME280;67046;50.088;14.336;2023-01-29T03:08:59;98630.95;;;-2.96;70.17
77855;BME280;67046;50.088;14.336;2023-01-29T03:09:34;98622.30;;;-2.96;70.24
77855;BME280;67046;50.088;14.336;2023-01-29T03:10:14;98627.20;;;-2.94;70.12
77855;BME280;67046;50.088;14.336;2023-01-29T03:10:52;98627.48;;;-2.94;70.14
77855;BME280;67046;50.088;14.336;2023-01-29T03:11:31;98622.36;;;-2.94;69.80
77855;BME280;67046;50.088;14.336;2023-01-29T03:12:22;98620.80;;;-2.94;69.81
77855;BME280;67046;50.088;14.336;2023-01-29T03:13:12;98620.65;;;-2.97;70.06
77855;BME280;67046;50.088;14.336;2023-01-29T03:13:50;98624.35;;;-2.98;69.84
77855;BME280;67046;50.088;14.336;2023-01-29T03:14:34;98620.45;;;-2.98;69.89
77855;BME280;67046;50.088;14.336;2023-01-29T03:15:30;98623.58;;;-2.99;69.94
77855;BME280;67046;50.088;14.336;2023-01-29T03:16:20;98624.50;;;-2.99;69.89
77855;BME280;67046;50.088;14.336;2023-01-29T03:16:54;98624.45;;;-2.99;69.95
77855;BME280;67046;50.088;14.336;2023-01-29T03:17:33;98626.17;;;-2.99;69.85
77855;BME280;67046;50.088;14.336;2023-01-29T03:18:11;98622.92;;;-2.99;69.69
77855;BME280;67046;50.088;14.336;2023-01-29T03:18:53;98626.40;;;-3.00;69.67
77855;BME280;67046;50.088;14.336;2023-01-29T03:19:41;98622.02;;;-2.98;69.63
77855;BME280;67046;50.088;14.336;2023-01-29T03:20:18;98624.58;;;-3.00;69.64
77855;BME280;67046;50.088;14.336;2023-01-29T03:20:57;98620.68;;;-3.01;69.38
77855;BME280;67046;50.088;14.336;2023-01-29T03:21:38;98621.92;;;-3.02;69.19
77855;BME280;67046;50.088;14.336;2023-01-29T03:22:21;98617.39;;;-3.03;69.30
77855;BME280;67046;50.088;14.336;2023-01-29T03:23:03;98615.55;;;-3.06;69.33
77855;BME280;67046;50.088;14.336;2023-01-29T03:23:36;98618.91;;;-3.06;69.31
77855;BME280;67046;50.088;14.336;2023-01-29T03:25:27;98615.16;;;-3.09;69.26
77855;BME280;67046;50.088;14.336;2023-01-29T03:26:20;98615.89;;;-3.10;69.14
77855;BME280;67046;50.088;14.336;2023-01-29T03:27:12;98617.32;;;-3.10;69.12
77855;BME280;67046;50.088;14.336;2023-01-29T03:28:05;98619.54;;;-3.12;68.92
77855;BME280;67046;50.088;14.336;2023-01-29T03:28:57;98617.05;;;-3.13;69.10
77855;BME280;67046;50.088;14.336;2023-01-29T03:29:50;98620.39;;;-3.14;69.30
77855;BME280;67046;50.088;14.336;2023-01-29T03:30:54;98612.98;;;-3.14;69.33
77855;BME280;67046;50.088;14.336;2023-01-29T03:31:48;98611.00;;;-3.15;69.28
77855;BME280;67046;50.088;14.336;2023-01-29T03:32:41;98611.80;;;-3.16;69.37
77855;BME280;67046;50.088;14.336;2023-01-29T03:33:17;98610.03;;;-3.16;69.68
77855;BME280;67046;50.088;14.336;2023-01-29T03:34:15;98608.33;;;-3.14;69.58
77855;BME280;67046;50.088;14.336;2023-01-29T03:34:57;98609.45;;;-3.15;69.47
77855;BME280;67046;50.088;14.336;2023-01-29T03:35:40;98607.30;;;-3.16;69.48
77855;BME280;67046;50.088;14.336;2023-01-29T03:36:22;98607.17;;;-3.17;69.40